createdAt,value
2022-11-01T00:02:20.145Z,16.50
2022-11-01T00:06:22.426Z,16.50
2022-11-01T00:10:24.126Z,16.40
2022-11-01T00:14:26.149Z,16.50
2022-11-01T00:18:28.003Z,16.60
2022-11-01T00:22:29.705Z,16.20
2022-11-01T00:26:31.566Z,16.10
2022-11-01T00:30:37.206Z,16.00
2022-11-01T00:34:38.862Z,15.90
2022-11-01T00:38:40.736Z,15.50
2022-11-01T00:42:42.413Z,15.50
2022-11-01T00:46:44.087Z,15.90
2022-11-01T00:50:46.000Z,15.70
2022-11-01T00:54:48.092Z,15.80
2022-11-01T00:58:50.143Z,15.90
2022-11-01T01:02:51.864Z,16.00
2022-11-01T01:06:53.626Z,16.10
2022-11-01T01:10:55.267Z,16.20
2022-11-01T01:14:56.988Z,16.30
2022-11-01T01:18:59.195Z,16.10
2022-11-01T01:23:00.845Z,16.10
2022-11-01T01:27:03.433Z,15.90
2022-11-01T01:31:09.548Z,15.90
2022-11-01T01:35:11.407Z,15.80
2022-11-01T01:39:13.335Z,16.00
2022-11-01T01:43:15.040Z,16.40
2022-11-01T01:47:22.491Z,16.10
2022-11-01T01:51:27.689Z,15.90
2022-11-01T01:56:06.117Z,15.80
2022-11-01T02:00:08.720Z,16.00
2022-11-01T02:04:33.452Z,16.10
2022-11-01T02:08:36.888Z,16.40
2022-11-01T02:12:38.521Z,16.20
2022-11-01T02:16:42.988Z,16.20
2022-11-01T02:21:18.956Z,16.20
2022-11-01T02:25:42.348Z,16.10
2022-11-01T02:30:08.246Z,16.00
2022-11-01T02:34:28.224Z,15.80
2022-11-01T02:38:40.258Z,16.10
2022-11-01T02:42:46.520Z,16.20
2022-11-01T02:47:01.387Z,16.00
2022-11-01T02:51:03.253Z,16.10
2022-11-01T02:55:29.788Z,15.90
2022-11-01T02:59:44.193Z,16.10
2022-11-01T03:03:48.968Z,16.30
2022-11-01T03:07:59.247Z,16.00
2022-11-01T03:12:10.060Z,16.30
2022-11-01T03:16:17.738Z,16.10
2022-11-01T03:20:24.899Z,16.10
2022-11-01T03:24:50.711Z,16.10
2022-11-01T03:28:57.760Z,16.10
2022-11-01T03:32:59.645Z,16.10
2022-11-01T03:37:07.056Z,16.10
2022-11-01T03:41:13.931Z,16.10
2022-11-01T03:45:19.492Z,15.90
2022-11-01T03:49:21.158Z,15.80
2022-11-01T03:53:23.427Z,15.80
2022-11-01T03:57:25.090Z,15.90
2022-11-01T04:01:26.853Z,16.10
2022-11-01T04:05:30.144Z,16.10
2022-11-01T04:09:31.904Z,16.10
2022-11-01T04:13:33.732Z,16.30
2022-11-01T04:17:53.951Z,16.10
2022-11-01T04:21:55.580Z,16.00
2022-11-01T04:25:57.442Z,16.10
2022-11-01T04:29:59.088Z,16.30
2022-11-01T04:34:02.171Z,16.00
2022-11-01T04:38:04.580Z,16.20
2022-11-01T04:42:06.726Z,16.00
2022-11-01T04:46:08.475Z,16.00
2022-11-01T04:50:10.257Z,16.00
2022-11-01T04:54:11.953Z,15.90
2022-11-01T04:58:14.635Z,15.90
2022-11-01T05:02:16.314Z,15.80
2022-11-01T05:06:18.059Z,15.80
2022-11-01T05:10:19.704Z,16.20
2022-11-01T05:14:21.359Z,15.80
2022-11-01T05:18:23.013Z,16.20
2022-11-01T05:22:24.696Z,15.90
2022-11-01T05:26:27.745Z,16.10
2022-11-01T05:30:29.504Z,16.20
2022-11-01T05:34:31.226Z,15.90
2022-11-01T05:38:32.887Z,16.10
2022-11-01T05:42:34.567Z,15.90
2022-11-01T05:46:36.281Z,16.10
2022-11-01T05:50:38.014Z,15.90
2022-11-01T05:54:39.683Z,16.10
2022-11-01T05:58:41.445Z,16.10
2022-11-01T06:02:43.159Z,16.20
2022-11-01T06:06:44.831Z,15.90
2022-11-01T06:10:46.545Z,15.90
2022-11-01T06:14:48.178Z,15.90
2022-11-01T06:18:50.005Z,15.30
2022-11-01T06:22:51.677Z,15.00
2022-11-01T06:26:53.338Z,15.50
2022-11-01T06:30:55.141Z,15.80
2022-11-01T06:34:56.847Z,15.60
2022-11-01T06:38:58.562Z,15.90
2022-11-01T06:43:02.607Z,15.50
2022-11-01T06:47:04.632Z,15.80
2022-11-01T06:51:06.492Z,15.80
2022-11-01T06:55:08.408Z,16.00
2022-11-01T06:59:10.172Z,16.10
2022-11-01T07:03:14.326Z,15.90
2022-11-01T07:07:15.981Z,16.00
2022-11-01T07:11:17.641Z,16.50
2022-11-01T07:15:19.316Z,16.00
2022-11-01T07:19:22.414Z,16.00
2022-11-01T07:23:24.067Z,16.00
2022-11-01T07:27:25.745Z,16.50
2022-11-01T07:31:27.367Z,16.60
2022-11-01T07:35:30.303Z,16.70
2022-11-01T07:39:32.112Z,16.70
2022-11-01T07:43:35.728Z,17.10
2022-11-01T07:47:37.553Z,17.10
2022-11-01T07:51:39.233Z,17.10
2022-11-01T07:55:41.064Z,17.20
2022-11-01T07:59:42.753Z,17.50
2022-11-01T08:03:44.512Z,17.40
2022-11-01T08:07:46.208Z,17.40
2022-11-01T08:11:47.968Z,17.50
2022-11-01T08:15:50.976Z,17.70
2022-11-01T08:19:52.600Z,17.80
2022-11-01T08:23:54.273Z,18.20
2022-11-01T08:28:00.228Z,18.00
2022-11-01T08:32:01.916Z,18.10
2022-11-01T08:36:03.809Z,18.10
2022-11-01T08:40:06.330Z,17.80
2022-11-01T08:44:08.068Z,18.00
2022-11-01T08:48:10.117Z,18.10
2022-11-01T08:52:11.790Z,18.40
2022-11-01T08:56:13.442Z,18.30
2022-11-01T09:00:16.692Z,18.60
2022-11-01T09:04:18.416Z,18.80
2022-11-01T09:08:21.121Z,19.10
2022-11-01T09:12:24.790Z,19.20
2022-11-01T09:16:26.687Z,19.40
2022-11-01T09:20:28.443Z,18.70
2022-11-01T09:24:30.213Z,18.40
2022-11-01T09:28:33.918Z,18.40
2022-11-01T09:32:36.193Z,18.90
2022-11-01T09:36:38.188Z,18.50
2022-11-01T09:40:45.275Z,18.90
2022-11-01T09:44:49.651Z,18.90
2022-11-01T09:48:52.915Z,19.50
2022-11-01T09:52:55.932Z,19.60
2022-11-01T09:57:34.498Z,19.80
2022-11-01T10:02:10.017Z,19.00
2022-11-01T10:06:22.398Z,18.70
2022-11-01T10:10:34.049Z,18.60
2022-11-01T10:15:10.872Z,19.30
2022-11-01T10:19:18.115Z,19.80
2022-11-01T10:23:24.588Z,20.30
2022-11-01T10:27:45.236Z,19.80
2022-11-01T10:31:51.734Z,19.70
2022-11-01T10:36:04.144Z,19.70
2022-11-01T10:40:30.306Z,19.70
2022-11-01T10:44:38.402Z,19.90
2022-11-01T10:53:16.914Z,20.30
2022-11-01T10:57:43.765Z,19.70
2022-11-01T11:01:47.637Z,19.50
2022-11-01T11:05:51.192Z,19.60
2022-11-01T11:09:52.926Z,19.90
2022-11-01T11:13:55.838Z,19.80
2022-11-01T11:17:59.546Z,20.20
2022-11-01T11:22:05.361Z,19.80
2022-11-01T11:26:11.713Z,19.70
2022-11-01T11:30:25.482Z,19.90
2022-11-01T11:34:30.653Z,20.00
2022-11-01T11:38:51.671Z,20.60
2022-11-01T11:42:55.958Z,20.80
2022-11-01T11:46:57.971Z,20.80
2022-11-01T11:51:03.514Z,20.90
2022-11-01T11:55:06.308Z,21.40
2022-11-01T11:59:25.923Z,21.70
2022-11-01T12:03:29.004Z,21.80
2022-11-01T12:07:32.059Z,21.80
2022-11-01T12:11:45.324Z,21.40
2022-11-01T12:15:47.204Z,21.20
2022-11-01T12:19:48.826Z,21.60
2022-11-01T12:23:55.072Z,21.60
2022-11-01T12:28:11.086Z,21.70
2022-11-01T12:32:44.866Z,21.20
2022-11-01T12:36:54.761Z,21.40
2022-11-01T12:41:01.592Z,21.70
2022-11-01T12:45:20.819Z,21.70
2022-11-01T12:49:28.263Z,21.40
2022-11-01T12:53:42.594Z,20.40
2022-11-01T12:57:44.652Z,20.50
2022-11-01T13:01:49.066Z,20.80
2022-11-01T13:06:29.168Z,21.20
2022-11-01T13:10:43.290Z,21.40
2022-11-01T13:14:59.757Z,21.70
2022-11-01T13:19:14.481Z,21.60
2022-11-01T13:23:33.912Z,21.30
2022-11-01T13:27:47.448Z,21.20
2022-11-01T13:32:12.424Z,21.50
2022-11-01T13:36:31.487Z,21.40
2022-11-01T13:40:40.925Z,21.40
2022-11-01T13:44:57.702Z,21.50
2022-11-01T13:49:08.512Z,21.50
2022-11-01T13:53:14.104Z,20.70
2022-11-01T13:57:18.468Z,20.90
2022-11-01T14:01:32.434Z,20.90
2022-11-01T14:05:38.949Z,21.30
2022-11-01T14:09:53.472Z,21.10
2022-11-01T14:13:55.125Z,21.00
2022-11-01T14:18:04.098Z,21.40
2022-11-01T14:22:27.548Z,21.40
2022-11-01T14:26:37.934Z,21.50
2022-11-01T14:30:42.689Z,21.70
2022-11-01T14:34:45.791Z,21.40
2022-11-01T14:39:00.366Z,21.40
2022-11-01T14:43:21.833Z,21.20
2022-11-01T14:47:39.136Z,20.70
2022-11-01T14:51:58.476Z,21.00
2022-11-01T14:56:20.070Z,21.00
2022-11-01T15:00:30.604Z,21.10
2022-11-01T15:04:46.028Z,20.90
2022-11-01T15:08:47.773Z,20.50
2022-11-01T15:12:52.341Z,20.60
2022-11-01T15:16:54.091Z,19.70
2022-11-01T15:20:59.514Z,19.90
2022-11-01T15:25:04.589Z,20.00
2022-11-01T15:29:06.974Z,19.80
2022-11-01T15:33:25.831Z,19.60
2022-11-01T15:37:32.387Z,19.80
2022-11-01T15:41:35.303Z,19.90
2022-11-01T15:45:38.606Z,20.00
2022-11-01T15:50:05.394Z,19.90
2022-11-01T15:54:21.628Z,20.20
2022-11-01T15:58:30.596Z,20.40
2022-11-01T16:02:54.207Z,20.50
2022-11-01T16:07:02.139Z,20.40
2022-11-01T16:11:04.148Z,20.50
2022-11-01T16:15:19.347Z,20.70
2022-11-01T16:19:45.230Z,20.50
2022-11-01T16:24:09.824Z,20.50
2022-11-01T16:28:11.582Z,20.50
2022-11-01T16:32:27.343Z,20.50
2022-11-01T16:36:36.426Z,20.50
2022-11-01T16:40:39.195Z,20.40
2022-11-01T16:44:41.143Z,20.50
2022-11-01T16:49:15.234Z,20.30
2022-11-01T16:53:17.142Z,19.90
2022-11-01T16:57:24.729Z,19.70
2022-11-01T17:01:35.295Z,19.60
2022-11-01T17:05:37.225Z,19.40
2022-11-01T17:09:39.727Z,19.50
2022-11-01T17:13:41.671Z,19.20
2022-11-01T17:17:45.772Z,19.30
2022-11-01T17:21:49.077Z,18.90
2022-11-01T17:25:53.456Z,18.90
2022-11-01T17:29:55.257Z,18.80
2022-11-01T17:33:57.585Z,18.60
2022-11-01T17:37:59.564Z,18.80
2022-11-01T17:42:01.631Z,18.40
2022-11-01T17:46:03.370Z,18.20
2022-11-01T17:50:05.500Z,18.20
2022-11-01T17:54:08.365Z,18.20
2022-11-01T17:58:10.779Z,18.00
2022-11-01T18:02:13.047Z,17.60
2022-11-01T18:06:15.123Z,17.60
2022-11-01T18:10:23.231Z,17.60
2022-11-01T18:14:37.240Z,17.30
2022-11-01T18:19:02.897Z,17.00
2022-11-01T18:23:10.969Z,16.10
2022-11-01T18:27:18.061Z,16.20
2022-11-01T18:31:31.827Z,16.50
2022-11-01T18:35:41.194Z,16.90
2022-11-01T18:39:49.641Z,17.10
2022-11-01T18:43:52.848Z,16.90
2022-11-01T18:48:08.339Z,17.00
2022-11-01T18:52:17.811Z,15.50
2022-11-01T18:56:22.384Z,15.80
2022-11-01T19:00:24.101Z,16.30
2022-11-01T19:04:29.608Z,16.70
2022-11-01T19:08:31.348Z,16.60
2022-11-01T19:12:39.388Z,16.60
2022-11-01T19:16:41.596Z,16.40
2022-11-01T19:20:49.849Z,16.50
2022-11-01T19:24:51.611Z,16.50
2022-11-01T19:28:53.770Z,16.50
2022-11-01T19:33:13.251Z,16.30
2022-11-01T19:37:29.308Z,16.30
2022-11-01T19:41:34.576Z,16.20
2022-11-01T19:45:39.261Z,15.90
2022-11-01T19:49:42.754Z,15.10
2022-11-01T19:53:45.402Z,15.40
2022-11-01T19:57:47.097Z,15.70
2022-11-01T20:01:50.132Z,15.60
2022-11-01T20:05:54.452Z,15.70
2022-11-01T20:09:58.817Z,16.10
2022-11-01T20:14:01.094Z,15.20
2022-11-01T20:18:03.934Z,15.20
2022-11-01T20:22:06.418Z,15.60
2022-11-01T20:26:08.203Z,15.60
2022-11-01T20:30:10.302Z,15.60
2022-11-01T20:34:11.964Z,15.70
2022-11-01T20:38:13.736Z,15.90
2022-11-01T20:42:15.497Z,15.70
2022-11-01T20:46:17.451Z,15.50
2022-11-01T20:50:19.665Z,15.40
2022-11-01T20:54:21.371Z,14.40
2022-11-01T20:58:23.137Z,14.50
2022-11-01T21:02:25.127Z,15.00
2022-11-01T21:06:31.481Z,15.20
2022-11-01T21:10:38.627Z,15.10
2022-11-01T21:14:40.307Z,15.10
2022-11-01T21:18:45.718Z,15.40
2022-11-01T21:22:47.410Z,14.90
2022-11-01T21:26:53.485Z,14.70
2022-11-01T21:31:26.885Z,14.70
2022-11-01T21:35:40.922Z,14.00
2022-11-01T21:39:42.939Z,14.30
2022-11-01T21:43:45.398Z,14.70
2022-11-01T21:47:47.117Z,14.60
2022-11-01T21:51:48.848Z,15.00
2022-11-01T21:55:51.575Z,14.20
2022-11-01T21:59:53.279Z,14.10
2022-11-01T22:03:54.948Z,14.30
2022-11-01T22:07:56.684Z,14.70
2022-11-01T22:11:59.175Z,14.60
2022-11-01T22:16:00.984Z,14.70
2022-11-01T22:20:02.847Z,14.70
2022-11-01T22:24:05.441Z,14.40
2022-11-01T22:28:07.160Z,13.90
2022-11-01T22:32:08.894Z,13.80
2022-11-01T22:36:40.419Z,14.10
2022-11-01T22:40:42.671Z,14.10
2022-11-01T22:44:47.232Z,14.00
2022-11-01T22:48:51.840Z,14.30
2022-11-01T22:52:53.589Z,13.70
2022-11-01T22:56:58.084Z,14.00
2022-11-01T23:01:00.820Z,14.20
2022-11-01T23:05:08.615Z,14.00
2022-11-01T23:09:15.687Z,13.90
2022-11-01T23:13:56.277Z,13.90
2022-11-01T23:18:02.333Z,13.70
2022-11-01T23:22:24.178Z,13.50
2022-11-01T23:26:25.989Z,13.30
2022-11-01T23:30:28.020Z,13.60
2022-11-01T23:34:29.714Z,13.30
2022-11-01T23:38:52.865Z,13.40
2022-11-01T23:42:54.527Z,13.50
2022-11-01T23:47:05.653Z,13.70
2022-11-01T23:51:12.499Z,13.50
2022-11-01T23:55:27.413Z,13.50
2022-11-01T23:59:29.207Z,13.10
